Search for airport 
image banner adimage banner adimage banner ad
image banner ad

IA29 - Allen Memorial Hospital

Located in Waterloo, United States

ICAO - IA29, IATA -

Data provided by Airmate  

General information

Coordinates: N42°31'32" W92°20'24"
Elevation is 899 feet MSL.
Magnetic variation is 03° East
View others Airports in Iowa

Operational data

Special qualification required
Current time UTC:
Current local time:
Weather at : KALO - Waterloo Rgnl ( 6 km )
METAR: KALO 150854Z AUTO 00000KT 10SM CLR 15/11 A3008 RMK AO2 SLP180 T01500106 51003
TAF: KALO 150520Z 1506/1606 35003KT P6SM SKC
View NOTAMs / SUP AIP / TFR affecting this airport [VIEW]
Communications frequencies: [VIEW]

Runways:

Airport contact information

Address: Waterloo United States

Satellite view of IA29